RUNWAY INFORMATION
Runway Length Width Elevation Displaced
Threshold
Heading | Runway Length Width Elevation Displaced
Threshold
Heading
09L 12799 ft 164 ft 79 ft 1007 ft 90 | 27R 12799 ft 164 ft 78 ft 0 ft 270
09R 12001 ft 148 ft 75 ft 1013 ft 90 | 27L 12001 ft 148 ft 77 ft 0 ft 270

 AIRPORT FREQUENCIES
Type APP Name APP Frequency 119.725 MHZ
Type ATIS Name ATIS Frequency 128.075 MHZ
Type CLD Name CLNC DEL Frequency 121.975 MHZ
Type GND Name GND Frequency 121.7 MHZ
Type TWR Name TWR Frequency 118.475 MHZ

 AIRPORT NEAR NAVIGATION AIDS
Type VOR-DME Name London Frequency 113600 KHZ

 METAR AND TAF INFORMATION
METAR FOR EGLL
ADDS - METARS form results

(0706 UTC 15 June 2021)
Data provider http://aviationweather.gov/metar/data/
 
METAR text: EGLL 150650Z AUTO 04006KT 020V080 9999 BKN035 BKN041 16/09 Q1023
Conditions at: EGLL (LONDON/HEATHROW , GB) observed 0650 UTC 15 June 2021
Temperature: 16.0°C (61°F)
Dewpoint: 9.0°C (48°F) [RH = 63%]
Pressure (altimeter): 30.21 inches Hg (1023.0 mb)
Winds: from the NE (40 degrees) at 7 MPH (6 knots; 3.1 m/s)
Visibility: 6 or more miles (10+ km)
Ceiling: 3500 feet AGL
Clouds: broken clouds at 3500 feet AGL
broken clouds at 4100 feet AGL
Weather: no significant weather observed at this time

METAR text: EGLL 150620Z AUTO 04005KT 010V080 9999 BKN035 16/08 Q1023 NOSIG
Conditions at: EGLL (LONDON/HEATHROW , GB) observed 0620 UTC 15 June 2021
Temperature: 16.0°C (61°F)
Dewpoint: 8.0°C (46°F) [RH = 59%]
Pressure (altimeter): 30.21 inches Hg (1023.0 mb)
Winds: from the NE (40 degrees) at 6 MPH (5 knots; 2.6 m/s)
Visibility: 6 or more miles (10+ km)
Ceiling: 3500 feet AGL
Clouds: broken clouds at 3500 feet AGL
Weather: no significant weather observed at this time

Forecast for: EGLL (LONDON/HEATHROW , GB)
Text: TAF EGLL 150455Z 1506/1612 04010KT 9999 OVC030
Forecast period: 0600 to 1200 UTC 15 June 2021
Forecast type: FROM: standard forecast or significant change
Winds: from the NE (40 degrees) at 12 MPH (10 knots; 5.1 m/s)
Visibility: 6 or more miles (10+ km)
Ceiling: 3000 feet AGL
Clouds: overcast cloud deck at 3000 feet AGL
Weather: no significant weather forecast for this period
Text: BECMG 1512/1515 23005KT
Forecast period: 1200 UTC 15 June 2021 to 1200 UTC 16 June 2021
Forecast type: BECOMING: Conditions expected to become as follows by 1500 UTC 15 June 2021
Winds: from the SW (230 degrees) at 6 MPH (5 knots; 2.6 m/s)
Visibility: 6 or more miles (10+ km)
Ceiling: 3000 feet AGL
Clouds: overcast cloud deck at 3000 feet AGL
Weather: no significant weather forecast for this period



© 2013 - 2021, FlightSimLog.org - Powered by Virtual Airlines Manager